Time;durP1;ratioP1;P1;durP2;ratioP2;P2;SDS_P1;SDS_P2;PMS_P1;PMS_P2;Temp;Humidity;BMP_temperature;BMP_pressure;BME280_temperature;BME280_humidity;BME280_pressure;Samples;Min_cycle;Max_cycle;Signal;HPM_P1;HPM_P2
2022/07/16 00:01:50;;;;;;;0.60;0.60;;;14.50;1.00;;;;;;5037862;28;20181;-87
2022/07/16 00:04:15;;;;;;;0.60;0.60;;;14.50;1.00;;;;;;5021472;28;20187;-86
2022/07/16 00:06:43;;;;;;;0.68;0.40;;;14.50;1.00;;;;;;5038376;28;20189;-86
2022/07/16 00:09:09;;;;;;;0.65;0.40;;;14.50;1.00;;;;;;5019575;28;20240;-86
2022/07/16 00:11:35;;;;;;;1.75;0.70;;;14.60;1.00;;;;;;5018638;28;20178;-86
2022/07/16 00:14:00;;;;;;;1.60;0.70;;;14.60;1.00;;;;;;5019645;28;20554;-86
2022/07/16 00:16:26;;;;;;;2.55;1.20;;;14.70;1.00;;;;;;5019943;28;20183;-87
2022/07/16 00:21:36;;;;;;;2.25;0.80;;;14.80;1.00;;;;;;5037902;28;20304;-86
2022/07/16 00:24:02;;;;;;;1.40;0.85;;;14.80;1.00;;;;;;5017029;28;20180;-86
2022/07/16 00:26:28;;;;;;;0.70;0.60;;;14.80;1.00;;;;;;5038620;28;20254;-86
2022/07/16 00:28:53;;;;;;;1.85;0.88;;;14.80;1.00;;;;;;5018344;28;20236;-86
2022/07/16 00:31:19;;;;;;;1.50;0.50;;;14.80;1.00;;;;;;5021432;28;20275;-87
2022/07/16 00:33:44;;;;;;;1.25;0.52;;;14.80;1.00;;;;;;5020356;28;20202;-86
2022/07/16 00:36:10;;;;;;;0.30;0.30;;;14.80;1.00;;;;;;5019995;28;20648;-86
2022/07/16 00:38:35;;;;;;;0.73;0.50;;;14.90;1.00;;;;;;5019474;28;20183;-86
2022/07/16 00:41:01;;;;;;;0.75;0.50;;;14.90;1.00;;;;;;5018284;28;20744;-86
2022/07/16 00:43:27;;;;;;;0.63;0.60;;;14.90;1.00;;;;;;5018000;28;20263;-85
2022/07/16 00:45:52;;;;;;;1.85;0.43;;;14.90;1.00;;;;;;5038049;28;20178;-86
2022/07/16 00:48:18;;;;;;;1.38;0.43;;;14.80;1.00;;;;;;5019426;28;20184;-86
2022/07/16 00:50:44;;;;;;;0.82;0.47;;;14.80;1.00;;;;;;5036341;28;20210;-87
2022/07/16 00:53:11;;;;;;;0.93;0.50;;;14.80;1.00;;;;;;5018025;28;21348;-86
2022/07/16 00:55:37;;;;;;;1.38;0.63;;;14.70;1.00;;;;;;5019816;28;20277;-86
2022/07/16 00:58:03;;;;;;;1.50;0.60;;;14.70;1.00;;;;;;5034933;28;20187;-86
2022/07/16 01:00:29;;;;;;;0.90;0.50;;;14.80;1.00;;;;;;5037198;28;20578;-86
2022/07/16 01:02:56;;;;;;;1.42;0.60;;;14.80;1.00;;;;;;5017925;28;20190;-87
2022/07/16 01:05:22;;;;;;;0.60;0.60;;;14.70;1.00;;;;;;5017701;28;20210;-87
2022/07/16 01:07:48;;;;;;;1.75;0.50;;;14.70;1.00;;;;;;5019089;28;20225;-87
2022/07/16 01:10:14;;;;;;;0.70;0.55;;;14.70;1.00;;;;;;5018035;28;20563;-86
2022/07/16 01:12:40;;;;;;;1.20;0.50;;;14.70;1.00;;;;;;5020453;28;20182;-87
2022/07/16 01:15:06;;;;;;;1.02;0.45;;;14.80;1.00;;;;;;5018152;28;20178;-87
2022/07/16 01:17:32;;;;;;;0.70;0.40;;;14.80;1.00;;;;;;5026223;28;20191;-85
2022/07/16 01:19:58;;;;;;;0.73;0.45;;;14.90;1.00;;;;;;5034475;28;20679;-85
2022/07/16 01:22:25;;;;;;;1.23;0.55;;;15.00;99.90;;;;;;5036871;28;20644;-86
2022/07/16 01:24:52;;;;;;;0.40;0.40;;;15.10;99.90;;;;;;5019518;28;20178;-85
2022/07/16 01:27:19;;;;;;;1.98;0.50;;;15.20;99.90;;;;;;5017557;28;20175;-85
2022/07/16 01:29:45;;;;;;;0.43;0.43;;;15.30;19.90;;;;;;5018624;28;20214;-86
2022/07/16 01:32:11;;;;;;;1.27;0.35;;;15.30;99.90;;;;;;5019236;28;20220;-86
2022/07/16 01:34:37;;;;;;;1.90;0.60;;;15.30;99.90;;;;;;5036681;28;21119;-86
2022/07/16 01:37:05;;;;;;;0.95;0.38;;;15.40;1.00;;;;;;5017872;28;20177;-85
2022/07/16 01:39:33;;;;;;;0.98;0.50;;;15.40;1.00;;;;;;5017981;28;20697;-86
2022/07/16 01:42:01;;;;;;;0.75;0.50;;;15.40;1.00;;;;;;5018638;28;20210;-86
2022/07/16 01:44:28;;;;;;;1.70;0.52;;;15.40;1.00;;;;;;5035883;28;20225;-85
2022/07/16 01:46:56;;;;;;;1.60;0.93;;;15.40;1.00;;;;;;5025010;28;20206;-86
2022/07/16 01:49:22;;;;;;;0.75;0.47;;;15.40;1.00;;;;;;5017509;28;20187;-86
2022/07/16 01:51:48;;;;;;;0.50;0.40;;;15.40;4.70;;;;;;5034649;28;20205;-86
2022/07/16 01:54:14;;;;;;;0.40;0.30;;;15.30;1.00;;;;;;5035807;28;20241;-86
2022/07/16 01:56:40;;;;;;;1.38;0.77;;;15.30;1.00;;;;;;5016772;28;20652;-88
2022/07/16 01:59:06;;;;;;;2.15;0.50;;;15.20;8.70;;;;;;5027617;28;20215;-85
2022/07/16 02:01:32;;;;;;;0.77;0.50;;;15.20;99.50;;;;;;5021435;28;20229;-85
2022/07/16 02:03:58;;;;;;;1.10;0.40;;;15.20;99.90;;;;;;5040430;28;20201;-86
2022/07/16 02:06:24;;;;;;;0.43;0.35;;;15.20;99.90;;;;;;5021600;28;20194;-87
2022/07/16 02:08:50;;;;;;;1.73;0.50;;;15.10;99.90;;;;;;5040041;28;20390;-86
2022/07/16 02:11:15;;;;;;;0.57;0.40;;;15.10;99.90;;;;;;5022914;28;20233;-85
2022/07/16 02:13:42;;;;;;;0.40;0.40;;;15.10;99.90;;;;;;5021925;28;20187;-86
2022/07/16 02:16:08;;;;;;;0.60;0.50;;;15.10;99.90;;;;;;5021890;28;20217;-85
2022/07/16 02:18:35;;;;;;;0.85;0.50;;;15.10;99.90;;;;;;5019721;28;20190;-86
2022/07/16 02:21:02;;;;;;;0.85;0.50;;;15.20;99.90;;;;;;5020255;28;20217;-86
2022/07/16 02:23:28;;;;;;;2.72;0.50;;;15.20;30.20;;;;;;5022497;28;20186;-85
2022/07/16 02:25:53;;;;;;;1.10;0.60;;;15.20;24.60;;;;;;5021064;28;20216;-85
2022/07/16 02:28:19;;;;;;;1.17;0.50;;;15.30;40.10;;;;;;5020669;28;20622;-86
2022/07/16 02:30:47;;;;;;;2.25;0.65;;;15.30;1.00;;;;;;5038483;28;20229;-85
2022/07/16 02:33:16;;;;;;;2.38;0.60;;;15.30;1.00;;;;;;5035867;28;20248;-85
2022/07/16 02:35:42;;;;;;;0.63;0.50;;;15.30;1.00;;;;;;5022164;28;20244;-86
2022/07/16 02:38:09;;;;;;;0.50;0.45;;;15.30;1.00;;;;;;5039811;28;20183;-86
2022/07/16 02:40:36;;;;;;;1.35;0.82;;;15.30;1.00;;;;;;5021879;28;20696;-86
2022/07/16 02:43:04;;;;;;;1.10;0.70;;;15.40;1.00;;;;;;5021838;28;20550;-86
2022/07/16 02:45:30;;;;;;;1.33;0.70;;;15.40;61.90;;;;;;5021040;28;20175;-86
2022/07/16 02:47:56;;;;;;;2.85;0.82;;;15.40;74.10;;;;;;5039268;28;20210;-86
2022/07/16 02:50:22;;;;;;;0.60;0.60;;;15.40;99.90;;;;;;5039027;28;20288;-86
2022/07/16 02:52:48;;;;;;;1.23;0.80;;;15.40;99.90;;;;;;5022400;28;20187;-84
2022/07/16 02:55:14;;;;;;;1.23;0.95;;;15.40;1.00;;;;;;5020336;28;20193;-85
2022/07/16 02:57:39;;;;;;;3.33;1.00;;;15.30;1.00;;;;;;5020523;28;20179;-86
2022/07/16 03:00:07;;;;;;;3.03;1.58;;;15.20;1.00;;;;;;5021065;28;20256;-86
2022/07/16 03:02:33;;;;;;;1.83;0.90;;;15.30;1.00;;;;;;5020868;28;20232;-85
2022/07/16 03:04:58;;;;;;;1.27;0.73;;;15.20;1.00;;;;;;5019735;28;20217;-84
2022/07/16 03:07:24;;;;;;;1.90;0.85;;;15.20;1.00;;;;;;5021181;28;20656;-86
2022/07/16 03:09:50;;;;;;;1.00;0.90;;;15.20;1.00;;;;;;5026525;28;20260;-89
2022/07/16 03:12:15;;;;;;;1.70;0.90;;;15.20;1.00;;;;;;5031630;28;20205;-86
2022/07/16 03:14:41;;;;;;;0.88;0.70;;;15.20;1.00;;;;;;5030949;28;20276;-86
2022/07/16 03:17:06;;;;;;;0.93;0.80;;;15.20;1.00;;;;;;5045059;28;20197;-86
2022/07/16 03:19:32;;;;;;;2.33;0.90;;;15.20;1.00;;;;;;5029860;28;20211;-88
2022/07/16 03:21:57;;;;;;;1.23;0.80;;;15.20;1.00;;;;;;5048163;28;20593;-86
2022/07/16 03:24:23;;;;;;;0.70;0.70;;;15.20;1.00;;;;;;5029520;28;20597;-86
2022/07/16 03:26:49;;;;;;;1.70;0.82;;;15.20;1.00;;;;;;5027621;28;20182;-86
2022/07/16 03:29:14;;;;;;;2.55;1.00;;;15.20;1.00;;;;;;5029916;28;20561;-87
2022/07/16 03:31:40;;;;;;;1.52;0.80;;;15.20;1.00;;;;;;5031844;28;20453;-87
2022/07/16 03:34:05;;;;;;;1.25;0.73;;;15.10;1.00;;;;;;5029140;28;20632;-86
2022/07/16 03:36:31;;;;;;;0.77;0.70;;;15.20;1.00;;;;;;5030978;28;20183;-86
2022/07/16 03:41:25;;;;;;;1.95;0.80;;;15.20;1.00;;;;;;5044059;28;20253;-87
2022/07/16 03:43:51;;;;;;;1.85;1.00;;;15.20;1.00;;;;;;5045083;28;20190;-86
2022/07/16 03:46:17;;;;;;;2.33;1.00;;;15.20;1.00;;;;;;5047249;28;20177;-86
2022/07/16 03:48:44;;;;;;;2.50;1.23;;;15.20;1.00;;;;;;5024932;28;20179;-87
2022/07/16 03:51:09;;;;;;;1.58;1.00;;;15.20;1.00;;;;;;5026805;28;20206;-88
2022/07/16 03:53:36;;;;;;;2.10;0.98;;;15.20;1.00;;;;;;5045659;28;20205;-86
2022/07/16 03:56:02;;;;;;;2.03;0.90;;;15.20;1.00;;;;;;5028100;28;20178;-88
2022/07/16 03:58:28;;;;;;;1.85;0.85;;;15.30;1.00;;;;;;5033964;28;20191;-87
2022/07/16 04:00:54;;;;;;;1.52;0.80;;;15.30;1.00;;;;;;5026955;28;20210;-88
2022/07/16 04:03:21;;;;;;;2.33;0.85;;;15.30;1.00;;;;;;5028115;28;20567;-86
2022/07/16 04:05:46;;;;;;;2.15;0.85;;;15.30;1.00;;;;;;5044857;28;20187;-87
2022/07/16 04:08:12;;;;;;;2.33;1.10;;;15.30;1.00;;;;;;5029400;28;20328;-88
2022/07/16 04:10:37;;;;;;;0.73;0.70;;;15.40;1.00;;;;;;5027297;28;20249;-86
2022/07/16 04:13:03;;;;;;;1.20;1.00;;;15.40;1.00;;;;;;5028740;28;20259;-87
2022/07/16 04:15:29;;;;;;;1.10;0.70;;;15.40;99.90;;;;;;5029019;28;20653;-86
2022/07/16 04:17:55;;;;;;;1.23;1.00;;;15.40;99.90;;;;;;5025994;28;20196;-88
2022/07/16 04:20:20;;;;;;;1.30;0.80;;;15.50;99.90;;;;;;5042658;28;20555;-90
2022/07/16 04:22:46;;;;;;;1.42;1.10;;;15.50;99.90;;;;;;5041574;28;20263;-88
2022/07/16 04:25:15;;;;;;;1.23;0.77;;;15.50;99.90;;;;;;5025897;28;20752;-89
2022/07/16 04:27:42;;;;;;;1.88;1.35;;;15.50;99.90;;;;;;5027665;28;20187;-89
2022/07/16 04:30:08;;;;;;;1.33;0.93;;;15.50;99.90;;;;;;5028701;28;20221;-86
2022/07/16 04:32:35;;;;;;;1.10;0.80;;;15.60;99.90;;;;;;5026703;28;20549;-89
2022/07/16 04:35:00;;;;;;;3.83;0.95;;;15.60;99.90;;;;;;5025132;28;20175;-86
2022/07/16 04:37:26;;;;;;;1.48;1.15;;;15.60;99.90;;;;;;5025079;28;20185;-86
2022/07/16 04:39:52;;;;;;;2.30;1.17;;;15.70;99.90;;;;;;5043847;28;20217;-86
2022/07/16 04:42:18;;;;;;;2.25;0.70;;;15.60;99.90;;;;;;5044161;28;20240;-86
2022/07/16 04:44:44;;;;;;;1.77;0.80;;;15.60;99.90;;;;;;5028116;28;20255;-88
2022/07/16 04:47:10;;;;;;;1.35;1.25;;;15.70;99.90;;;;;;5026810;28;20186;-86
2022/07/16 04:49:36;;;;;;;1.50;0.80;;;15.70;99.90;;;;;;5025148;28;20806;-87
2022/07/16 04:52:02;;;;;;;2.28;0.98;;;15.80;1.00;;;;;;5024730;28;20175;-86
2022/07/16 04:54:27;;;;;;;1.95;1.17;;;15.80;1.00;;;;;;5032825;28;20237;-86
2022/07/16 04:56:53;;;;;;;2.22;0.98;;;15.90;1.00;;;;;;5026483;28;20178;-86
2022/07/16 04:59:19;;;;;;;1.67;1.15;;;15.90;99.90;;;;;;5026821;28;20269;-87
2022/07/16 05:01:44;;;;;;;2.40;0.98;;;15.90;99.90;;;;;;5024613;28;20186;-88
2022/07/16 05:04:10;;;;;;;1.92;0.93;;;15.90;99.90;;;;;;5028350;28;20286;-86
2022/07/16 05:06:35;;;;;;;1.92;1.25;;;15.90;99.90;;;;;;5025502;28;20170;-86
2022/07/16 05:09:01;;;;;;;2.80;1.35;;;15.90;1.00;;;;;;5042032;28;20200;-86
2022/07/16 05:11:28;;;;;;;1.65;1.25;;;15.90;1.00;;;;;;5022651;28;20711;-88
2022/07/16 05:13:53;;;;;;;2.00;1.40;;;16.00;1.00;;;;;;5021389;28;20201;-85
2022/07/16 05:16:19;;;;;;;2.22;1.55;;;15.90;1.00;;;;;;5021944;28;20203;-86
2022/07/16 05:18:46;;;;;;;2.58;1.42;;;15.90;1.00;;;;;;5020634;28;20273;-86
2022/07/16 05:21:12;;;;;;;2.78;1.38;;;15.80;1.00;;;;;;5019962;28;20209;-85
2022/07/16 05:23:37;;;;;;;1.50;1.30;;;15.80;1.00;;;;;;5022491;28;20209;-86
2022/07/16 05:26:03;;;;;;;2.45;1.33;;;15.80;1.00;;;;;;5020904;28;20175;-86
2022/07/16 05:28:29;;;;;;;1.60;1.20;;;15.80;1.00;;;;;;5036774;28;20225;-87
2022/07/16 05:30:55;;;;;;;3.35;1.38;;;15.80;4.90;;;;;;5019297;28;20704;-85
2022/07/16 05:33:21;;;;;;;2.67;1.40;;;15.70;1.00;;;;;;5018714;28;20193;-88
2022/07/16 05:35:46;;;;;;;3.08;1.30;;;15.60;43.30;;;;;;5017837;28;20178;-85
2022/07/16 05:38:12;;;;;;;4.15;1.50;;;15.50;31.00;;;;;;5017459;28;20201;-86
2022/07/16 05:40:38;;;;;;;1.92;1.60;;;15.40;68.30;;;;;;5019406;28;20206;-87
2022/07/16 05:43:05;;;;;;;2.05;1.50;;;15.40;48.30;;;;;;5018163;28;20760;-86
2022/07/16 05:45:30;;;;;;;1.70;1.30;;;15.40;97.90;;;;;;5018198;28;20183;-85
2022/07/16 05:47:56;;;;;;;3.17;1.65;;;15.40;98.30;;;;;;5036508;28;20186;-85
2022/07/16 05:50:21;;;;;;;1.73;1.38;;;15.30;99.90;;;;;;5018071;28;20577;-86
2022/07/16 05:52:47;;;;;;;2.45;1.75;;;15.20;99.90;;;;;;5019517;28;20612;-85
2022/07/16 05:55:13;;;;;;;4.05;1.73;;;15.20;99.90;;;;;;5018366;28;20186;-89
2022/07/16 05:57:39;;;;;;;2.85;1.40;;;15.20;99.90;;;;;;5018034;28;20206;-86
2022/07/16 06:00:13;;;;;;;1.85;1.63;;;15.20;99.90;;;;;;5017523;28;20256;-86
2022/07/16 06:02:40;;;;;;;2.65;1.70;;;15.10;99.90;;;;;;5019285;28;20295;-86
2022/07/16 06:05:07;;;;;;;1.77;1.67;;;15.00;99.90;;;;;;5026029;28;20588;-86
2022/07/16 06:07:33;;;;;;;2.97;2.00;;;14.90;99.90;;;;;;5017617;28;20221;-86
2022/07/16 06:09:59;;;;;;;2.90;2.00;;;14.90;99.90;;;;;;5019395;28;20221;-86
2022/07/16 06:12:24;;;;;;;3.85;1.90;;;14.80;99.90;;;;;;5018490;28;20191;-87
2022/07/16 06:14:50;;;;;;;2.97;2.10;;;14.70;99.90;;;;;;5022026;28;20273;-86
2022/07/16 06:17:15;;;;;;;2.60;2.00;;;14.60;99.90;;;;;;5039699;28;20992;-88
2022/07/16 06:19:42;;;;;;;4.53;2.17;;;14.60;99.90;;;;;;5020739;28;20650;-86
2022/07/16 06:22:08;;;;;;;2.97;2.30;;;14.60;99.90;;;;;;5020922;28;20710;-87
2022/07/16 06:24:33;;;;;;;2.40;1.88;;;14.50;99.90;;;;;;5021024;28;20186;-88
2022/07/16 06:26:59;;;;;;;3.63;2.25;;;14.60;99.90;;;;;;5024889;28;20522;-86
2022/07/16 06:29:25;;;;;;;4.38;2.22;;;14.60;99.90;;;;;;5024024;28;20602;-86
2022/07/16 06:31:50;;;;;;;3.45;2.45;;;14.60;99.90;;;;;;5022913;28;20201;-86
2022/07/16 06:34:16;;;;;;;3.00;2.15;;;14.70;99.90;;;;;;5042504;28;20183;-88
2022/07/16 06:36:41;;;;;;;3.22;2.15;;;14.70;99.90;;;;;;5042544;28;20197;-85
2022/07/16 06:39:08;;;;;;;2.38;2.15;;;14.70;99.90;;;;;;5023757;28;20228;-86
2022/07/16 06:41:38;;;;;;;2.90;2.28;;;14.70;99.90;;;;;;5025368;28;20209;-86
2022/07/16 06:44:06;;;;;;;2.20;1.90;;;14.90;99.90;;;;;;5026771;28;20175;-88
2022/07/16 06:46:32;;;;;;;3.45;1.90;;;14.80;99.90;;;;;;5028299;28;20216;-86
2022/07/16 06:48:58;;;;;;;2.90;2.10;;;15.00;99.90;;;;;;5025897;28;20625;-86
2022/07/16 06:51:24;;;;;;;3.88;2.25;;;14.90;99.90;;;;;;5030867;28;20225;-86
2022/07/16 06:53:49;;;;;;;2.20;1.77;;;14.90;99.90;;;;;;5030279;28;20240;-85
2022/07/16 06:56:15;;;;;;;2.40;2.20;;;15.00;99.90;;;;;;5032070;28;20194;-87
2022/07/16 06:58:40;;;;;;;2.67;2.00;;;15.00;99.90;;;;;;5045488;28;20611;-87
2022/07/16 07:01:06;;;;;;;3.20;2.13;;;15.10;99.90;;;;;;5033681;28;20210;-86
2022/07/16 07:03:32;;;;;;;2.10;1.83;;;15.30;99.90;;;;;;5024083;28;20230;-85
2022/07/16 07:05:57;;;;;;;2.05;1.85;;;15.40;99.90;;;;;;5038467;28;20183;-87
2022/07/16 07:08:23;;;;;;;4.20;1.88;;;15.40;99.90;;;;;;5023156;28;20203;-87
2022/07/16 07:10:48;;;;;;;2.72;1.90;;;15.60;99.90;;;;;;5027823;28;20217;-85
2022/07/16 07:13:14;;;;;;;2.53;2.30;;;15.70;99.90;;;;;;5021873;28;20422;-85
2022/07/16 07:15:41;;;;;;;2.50;2.30;;;16.00;99.90;;;;;;5024241;28;20190;-86
2022/07/16 07:18:07;;;;;;;2.20;2.05;;;16.30;99.90;;;;;;5026884;28;20544;-86
2022/07/16 07:20:33;;;;;;;2.42;2.10;;;16.70;99.90;;;;;;5026362;28;20238;-87
2022/07/16 07:22:58;;;;;;;2.60;2.40;;;16.70;99.90;;;;;;5023878;28;20190;-87
2022/07/16 07:25:24;;;;;;;3.70;2.10;;;16.80;99.90;;;;;;5028112;28;20581;-86
2022/07/16 07:27:49;;;;;;;4.00;2.28;;;17.00;99.90;;;;;;5024421;28;20183;-86
2022/07/16 07:30:15;;;;;;;2.35;2.10;;;17.50;99.90;;;;;;5025242;28;20211;-86
2022/07/16 07:32:40;;;;;;;2.95;2.10;;;17.80;99.90;;;;;;5022269;28;20645;-87
2022/07/16 07:35:07;;;;;;;2.40;2.17;;;17.90;99.90;;;;;;5023840;28;20252;-86
2022/07/16 07:37:32;;;;;;;1.90;1.80;;;17.70;99.90;;;;;;5024040;28;20252;-85
2022/07/16 07:39:58;;;;;;;2.58;2.13;;;17.30;99.90;;;;;;5023903;28;20241;-88
2022/07/16 07:42:24;;;;;;;2.15;1.95;;;17.20;99.90;;;;;;5030507;28;20174;-85
2022/07/16 07:44:49;;;;;;;2.58;1.98;;;17.20;99.90;;;;;;5030200;28;20190;-84
2022/07/16 07:47:15;;;;;;;2.65;2.00;;;17.60;99.90;;;;;;5027408;28;20661;-86
2022/07/16 07:49:40;;;;;;;1.73;1.63;;;18.00;99.90;;;;;;5042423;28;20260;-86
2022/07/16 07:52:08;;;;;;;1.73;1.45;;;18.00;99.90;;;;;;5023809;28;20179;-85
2022/07/16 07:54:34;;;;;;;1.60;1.50;;;17.80;75.40;;;;;;5019104;28;20694;-85
2022/07/16 07:56:59;;;;;;;2.33;1.50;;;17.50;98.80;;;;;;5022741;28;20193;-86
2022/07/16 07:59:25;;;;;;;2.28;1.60;;;17.70;94.30;;;;;;5023769;28;20182;-85
2022/07/16 08:01:50;;;;;;;1.60;1.50;;;18.00;93.20;;;;;;5023217;28;20182;-86
2022/07/16 08:04:16;;;;;;;1.13;1.02;;;18.30;67.00;;;;;;5042381;28;20337;-87
2022/07/16 08:06:41;;;;;;;1.70;1.33;;;17.90;1.00;;;;;;5023475;28;20224;-86
2022/07/16 08:09:07;;;;;;;1.25;1.15;;;17.90;1.00;;;;;;5022668;28;20196;-85
2022/07/16 08:11:33;;;;;;;3.45;1.30;;;18.20;1.00;;;;;;5039589;28;20235;-86
2022/07/16 08:13:58;;;;;;;1.35;1.25;;;18.40;1.00;;;;;;5022860;28;20183;-85
2022/07/16 08:16:24;;;;;;;2.50;1.33;;;18.70;1.00;;;;;;5025904;28;20214;-86
2022/07/16 08:18:49;;;;;;;4.10;1.60;;;18.80;1.00;;;;;;5024298;28;20270;-85
2022/07/16 08:21:15;;;;;;;2.03;1.20;;;18.80;1.00;;;;;;5018819;28;20210;-84
2022/07/16 08:26:25;;;;;;;3.60;1.27;;;19.00;1.00;;;;;;5039648;28;20197;-85
2022/07/16 08:28:50;;;;;;;1.80;1.00;;;18.90;99.90;;;;;;5018737;28;20175;-87
2022/07/16 08:31:16;;;;;;;2.65;1.10;;;18.60;99.90;;;;;;5020840;28;20242;-83
2022/07/16 08:33:42;;;;;;;1.50;1.00;;;18.70;99.90;;;;;;5017265;28;20563;-85
2022/07/16 08:36:07;;;;;;;1.10;1.00;;;18.60;99.90;;;;;;5019932;28;20193;-86
2022/07/16 08:38:33;;;;;;;1.63;1.40;;;18.90;1.00;;;;;;5022179;28;20665;-87
2022/07/16 08:41:01;;;;;;;2.05;1.15;;;19.10;99.90;;;;;;5021337;28;20214;-88
2022/07/16 08:43:26;;;;;;;1.23;1.02;;;19.10;99.90;;;;;;5036394;28;20422;-87
2022/07/16 08:45:52;;;;;;;1.00;0.90;;;18.80;99.90;;;;;;5019905;28;20189;-88
2022/07/16 08:48:19;;;;;;;1.05;0.95;;;18.80;99.90;;;;;;5014405;28;20188;-89
2022/07/16 08:50:45;;;;;;;1.10;0.85;;;18.80;99.90;;;;;;5034052;28;20213;-88
2022/07/16 08:53:11;;;;;;;1.80;1.17;;;18.90;99.90;;;;;;5035117;28;20187;-88
2022/07/16 08:55:40;;;;;;;1.20;0.88;;;19.10;99.90;;;;;;5031201;28;20548;-87
2022/07/16 08:58:08;;;;;;;2.33;1.00;;;19.20;1.00;;;;;;5024894;28;20197;-87
2022/07/16 09:00:34;;;;;;;1.35;0.90;;;19.10;99.90;;;;;;5034308;28;20222;-88
2022/07/16 09:03:00;;;;;;;1.05;0.95;;;19.10;99.90;;;;;;5014824;28;20213;-87
2022/07/16 09:05:26;;;;;;;1.00;0.90;;;19.00;1.00;;;;;;5019138;28;20182;-87
2022/07/16 09:07:53;;;;;;;2.05;0.90;;;18.80;23.00;;;;;;5025558;28;20187;-89
2022/07/16 09:10:19;;;;;;;1.02;0.90;;;18.90;1.00;;;;;;5031678;28;20234;-88
2022/07/16 09:12:46;;;;;;;1.40;0.80;;;19.30;99.90;;;;;;5031505;28;20190;-87
2022/07/16 09:15:36;;;;;;;1.38;0.70;;;19.60;1.00;;;;;;5022204;28;20194;-87
2022/07/16 09:18:20;;;;;;;2.05;0.82;;;19.70;1.00;;;;;;5016731;28;20297;-86
2022/07/16 09:20:55;;;;;;;1.75;0.95;;;19.50;1.00;;;;;;5032589;28;20199;-86
2022/07/16 09:23:34;;;;;;;1.20;0.70;;;19.40;1.00;;;;;;5020693;28;20224;-86
2022/07/16 09:26:02;;;;;;;1.67;0.82;;;19.50;99.90;;;;;;5018413;28;20179;-86
2022/07/16 09:28:47;;;;;;;1.55;0.80;;;19.50;99.90;;;;;;5032576;28;20686;-86
2022/07/16 09:31:32;;;;;;;1.63;0.82;;;19.60;99.90;;;;;;5015358;28;20230;-87
2022/07/16 09:34:07;;;;;;;0.73;0.73;;;19.70;1.00;;;;;;5034666;28;20197;-87
2022/07/16 09:36:33;;;;;;;1.45;0.90;;;19.70;1.00;;;;;;5011809;28;20219;-87
2022/07/16 09:38:58;;;;;;;1.30;0.88;;;19.50;1.00;;;;;;5009511;28;20672;-87
2022/07/16 09:41:24;;;;;;;1.65;0.98;;;19.40;99.90;;;;;;5013663;28;20687;-89
2022/07/16 09:43:50;;;;;;;1.70;0.80;;;19.40;1.00;;;;;;5015414;28;20212;-87
2022/07/16 09:46:22;;;;;;;1.23;0.80;;;19.10;1.00;;;;;;5017795;28;20198;-87
2022/07/16 09:48:49;;;;;;;2.38;1.05;;;19.00;99.90;;;;;;5014806;28;20179;-87
2022/07/16 09:51:16;;;;;;;1.85;0.70;;;18.50;1.00;;;;;;5017495;28;20217;-88
2022/07/16 09:53:50;;;;;;;1.42;0.90;;;18.10;1.00;;;;;;5032597;28;20190;-87
2022/07/16 09:56:26;;;;;;;1.38;0.82;;;17.90;1.00;;;;;;5014827;28;20240;-87
2022/07/16 09:58:54;;;;;;;2.90;0.90;;;17.70;1.00;;;;;;5017302;28;20875;-86
2022/07/16 10:01:21;;;;;;;2.08;0.82;;;17.70;1.00;;;;;;5026526;28;20234;-88
2022/07/16 10:03:47;;;;;;;2.08;0.80;;;17.60;1.00;;;;;;5020162;28;20611;-87
2022/07/16 10:06:13;;;;;;;1.55;0.80;;;17.70;99.90;;;;;;5019999;28;20182;-86
2022/07/16 10:08:40;;;;;;;2.22;1.13;;;18.00;1.00;;;;;;5019419;28;20649;-86
2022/07/16 10:11:07;;;;;;;2.38;0.80;;;18.10;99.90;;;;;;5030370;28;20633;-86
2022/07/16 10:13:34;;;;;;;1.45;0.73;;;18.20;99.90;;;;;;5017815;28;20685;-88
2022/07/16 10:16:00;;;;;;;1.73;1.10;;;18.30;99.90;;;;;;5018674;28;20182;-90
2022/07/16 10:18:38;;;;;;;1.90;0.77;;;18.30;99.90;;;;;;5040300;28;20190;-90
2022/07/16 10:21:13;;;;;;;2.50;0.80;;;18.30;99.90;;;;;;5042522;28;20214;-87
2022/07/16 10:23:42;;;;;;;2.67;1.25;;;18.30;1.00;;;;;;5023867;28;20198;-88
2022/07/16 10:26:20;;;;;;;1.65;0.85;;;18.40;99.90;;;;;;5018345;28;20179;-88
2022/07/16 10:28:57;;;;;;;1.90;0.90;;;18.50;1.00;;;;;;5015993;28;20245;-89
2022/07/16 10:31:34;;;;;;;1.90;0.95;;;18.70;99.90;;;;;;5017120;28;20226;-88
2022/07/16 10:34:15;;;;;;;2.33;0.90;;;18.70;99.90;;;;;;5024271;28;20232;-86
2022/07/16 10:36:48;;;;;;;3.72;0.90;;;18.80;1.00;;;;;;5022625;28;20199;-85
2022/07/16 10:39:15;;;;;;;2.35;0.88;;;18.90;99.90;;;;;;5039929;28;20268;-86
2022/07/16 10:41:48;;;;;;;1.77;0.65;;;19.10;1.00;;;;;;5029231;28;20206;-87
2022/07/16 10:44:14;;;;;;;1.35;0.77;;;19.40;1.00;;;;;;5020725;28;20851;-87
2022/07/16 10:47:00;;;;;;;1.75;0.85;;;19.90;1.00;;;;;;5038352;28;20249;-87
2022/07/16 10:49:28;;;;;;;1.67;0.85;;;20.30;99.90;;;;;;5028956;28;20277;-86
2022/07/16 10:51:55;;;;;;;2.30;0.85;;;20.30;99.90;;;;;;5020487;28;20178;-88
2022/07/16 10:54:21;;;;;;;1.83;0.77;;;20.10;1.00;;;;;;5037969;28;20179;-86
2022/07/16 10:56:52;;;;;;;1.23;0.60;;;19.90;1.00;;;;;;5024197;28;20186;-86
2022/07/16 10:59:23;;;;;;;1.98;0.73;;;19.90;1.00;;;;;;5015885;28;20186;-87
2022/07/16 11:01:53;;;;;;;1.70;0.85;;;20.20;1.00;;;;;;5017108;28;20305;-87
2022/07/16 11:04:35;;;;;;;3.53;0.80;;;20.30;99.90;;;;;;5017093;28;20241;-86
2022/07/16 11:07:04;;;;;;;1.70;0.70;;;20.50;99.90;;;;;;5023978;28;20274;-86
2022/07/16 11:09:32;;;;;;;2.47;0.70;;;20.30;15.90;;;;;;5016564;28;20237;-85
2022/07/16 11:12:16;;;;;;;2.67;0.63;;;20.10;1.00;;;;;;5029548;28;20174;-85
2022/07/16 11:14:46;;;;;;;2.80;0.63;;;20.10;99.90;;;;;;5015271;28;20675;-87
2022/07/16 11:17:13;;;;;;;0.93;0.70;;;20.20;99.90;;;;;;5008670;28;20195;-86
2022/07/16 11:19:41;;;;;;;2.78;0.70;;;20.20;1.00;;;;;;5011781;28;20207;-85
2022/07/16 11:22:07;;;;;;;2.70;0.98;;;20.20;1.00;;;;;;5015313;28;20240;-85
2022/07/16 11:24:33;;;;;;;0.80;0.50;;;20.20;1.00;;;;;;5028385;28;20723;-87
2022/07/16 11:27:00;;;;;;;0.95;0.70;;;20.30;1.00;;;;;;5014482;28;20194;-86
2022/07/16 11:29:27;;;;;;;2.33;0.90;;;20.30;1.00;;;;;;5017042;28;20538;-87
2022/07/16 11:31:54;;;;;;;3.72;1.02;;;20.40;99.90;;;;;;5029893;28;20668;-85
2022/07/16 11:34:22;;;;;;;2.03;0.60;;;20.60;99.90;;;;;;5011628;28;20631;-86
2022/07/16 11:36:50;;;;;;;2.08;0.60;;;20.70;1.00;;;;;;5016182;28;20244;-88
2022/07/16 11:39:19;;;;;;;2.55;0.80;;;20.70;99.90;;;;;;5019913;28;20286;-85
2022/07/16 11:41:47;;;;;;;1.65;0.80;;;20.60;99.90;;;;;;5035924;28;20237;-85
2022/07/16 11:44:18;;;;;;;4.35;0.77;;;20.50;99.90;;;;;;5017802;28;20179;-85
2022/07/16 11:46:53;;;;;;;1.55;0.70;;;20.40;11.80;;;;;;5018890;28;20648;-85
2022/07/16 11:49:29;;;;;;;5.88;0.57;;;20.50;90.50;;;;;;5017207;28;20667;-84
2022/07/16 11:51:58;;;;;;;2.72;0.73;;;20.70;1.00;;;;;;5015470;28;20182;-87
2022/07/16 11:54:25;;;;;;;1.35;0.60;;;20.70;1.00;;;;;;5021006;28;20289;-87
2022/07/16 11:56:51;;;;;;;1.25;0.50;;;20.60;1.00;;;;;;5013483;28;20197;-86
2022/07/16 11:59:24;;;;;;;2.65;0.70;;;20.60;1.00;;;;;;5032707;28;20216;-86
2022/07/16 12:02:08;;;;;;;1.33;0.57;;;20.70;1.00;;;;;;5010973;28;20239;-85
2022/07/16 12:05:00;;;;;;;1.13;0.50;;;20.50;1.00;;;;;;5033944;28;20186;-86
2022/07/16 12:07:25;;;;;;;1.38;0.60;;;20.60;1.00;;;;;;5012209;28;20185;-86
2022/07/16 12:09:54;;;;;;;1.00;0.50;;;20.90;1.00;;;;;;5034587;28;20203;-86
2022/07/16 12:12:26;;;;;;;1.15;0.52;;;21.20;1.00;;;;;;5017419;28;20170;-85
2022/07/16 12:14:52;;;;;;;2.20;0.57;;;21.40;1.00;;;;;;5014593;28;20186;-88
2022/07/16 12:17:30;;;;;;;2.35;0.70;;;21.80;1.00;;;;;;5030064;28;20649;-86
2022/07/16 12:20:12;;;;;;;1.33;0.57;;;21.80;1.00;;;;;;5017878;28;20244;-86
2022/07/16 12:22:59;;;;;;;0.63;0.45;;;21.80;1.00;;;;;;5019210;28;20166;-85
2022/07/16 12:25:28;;;;;;;1.25;0.63;;;21.90;1.00;;;;;;5022884;28;20274;-85
2022/07/16 12:27:55;;;;;;;2.38;0.63;;;22.00;1.00;;;;;;5013467;28;20268;-86
2022/07/16 12:30:39;;;;;;;2.10;0.60;;;21.90;99.90;;;;;;5018530;28;20221;-85
2022/07/16 12:33:07;;;;;;;3.70;1.52;;;21.60;99.90;;;;;;5031710;28;20185;-85
2022/07/16 12:36:05;;;;;;;3.25;2.08;;;21.30;1.00;;;;;;5018663;28;20197;-85
2022/07/16 12:38:48;;;;;;;1.25;0.70;;;21.60;99.90;;;;;;5004127;28;20203;-85
2022/07/16 12:41:47;;;;;;;2.28;0.60;;;21.80;99.90;;;;;;5020503;28;20214;-85
2022/07/16 12:44:17;;;;;;;1.67;0.50;;;22.00;99.90;;;;;;4984066;28;20195;-84
2022/07/16 12:46:48;;;;;;;1.92;0.60;;;21.80;99.90;;;;;;5032772;28;20716;-86
2022/07/16 12:49:23;;;;;;;1.92;0.60;;;21.30;99.90;;;;;;5036229;28;20267;-84
2022/07/16 12:51:55;;;;;;;1.38;0.50;;;21.10;99.90;;;;;;5015054;28;20177;-84
2022/07/16 12:54:21;;;;;;;3.08;0.80;;;21.10;99.90;;;;;;5014297;28;20186;-82
2022/07/16 12:59:33;;;;;;;1.13;0.65;;;21.00;99.90;;;;;;5029544;28;20242;-82
2022/07/16 13:02:00;;;;;;;2.38;0.82;;;21.00;99.90;;;;;;5020467;28;20393;-82
2022/07/16 13:04:26;;;;;;;2.47;1.20;;;21.20;99.90;;;;;;5018274;28;20217;-82
2022/07/16 13:06:52;;;;;;;1.52;0.70;;;21.10;99.90;;;;;;5015053;28;20187;-85